createdAt,value
2018-08-23T00:01:37.877Z,18.90
2018-08-23T00:04:10.972Z,19.03
2018-08-23T00:06:53.619Z,18.60
2018-08-23T00:09:30.158Z,18.73
2018-08-23T00:12:00.695Z,18.73
2018-08-23T00:14:41.915Z,18.63
2018-08-23T00:17:16.235Z,18.77
2018-08-23T00:19:54.927Z,19.07
2018-08-23T00:22:31.601Z,18.57
2018-08-23T00:24:59.996Z,19.27
2018-08-23T00:27:32.970Z,18.70
2018-08-23T00:30:02.686Z,18.97
2018-08-23T00:32:31.350Z,18.83
2018-08-23T00:35:03.460Z,19.17
2018-08-23T00:37:32.110Z,17.83
2018-08-23T00:40:09.036Z,19.10
2018-08-23T00:42:37.724Z,21.50
2018-08-23T00:45:14.565Z,20.63
2018-08-23T00:47:44.136Z,22.57
2018-08-23T00:50:55.772Z,21.80
2018-08-23T00:53:24.418Z,24.33
2018-08-23T00:56:28.232Z,22.07
2018-08-23T00:59:00.422Z,22.63
2018-08-23T01:01:33.632Z,22.00
2018-08-23T01:04:18.697Z,22.57
2018-08-23T01:06:54.889Z,22.20
2018-08-23T01:09:31.853Z,21.73
2018-08-23T01:12:00.436Z,23.00
2018-08-23T01:14:32.416Z,21.93
2018-08-23T01:17:14.382Z,22.27
2018-08-23T01:19:49.422Z,21.87
2018-08-23T01:22:23.495Z,22.10
2018-08-23T01:24:55.242Z,23.30
2018-08-23T01:27:38.227Z,21.53
2018-08-23T01:30:25.495Z,21.90
2018-08-23T01:32:55.126Z,21.47
2018-08-23T01:35:23.824Z,21.20
2018-08-23T01:37:52.415Z,19.80
2018-08-23T01:40:27.422Z,20.43
2018-08-23T01:43:01.792Z,21.10
2018-08-23T01:45:40.965Z,20.60
2018-08-23T01:48:11.905Z,20.77
2018-08-23T01:50:46.036Z,20.33
2018-08-23T01:53:15.712Z,20.83
2018-08-23T01:55:55.372Z,19.93
2018-08-23T01:58:27.119Z,21.43
2018-08-23T02:03:51.294Z,21.20
2018-08-23T02:09:13.163Z,23.60
2018-08-23T02:11:41.851Z,23.13
2018-08-23T02:14:11.406Z,23.23
2018-08-23T02:16:50.417Z,22.13
2018-08-23T02:19:23.578Z,21.03
2018-08-23T02:21:52.238Z,22.53
2018-08-23T02:24:27.798Z,22.10
2018-08-23T02:26:56.369Z,21.77
2018-08-23T02:29:37.696Z,20.93
2018-08-23T02:32:18.026Z,21.10
2018-08-23T02:34:48.916Z,21.63
2018-08-23T02:37:20.634Z,20.53
2018-08-23T02:39:59.476Z,21.37
2018-08-23T02:42:28.170Z,21.50
2018-08-23T02:45:02.074Z,22.03
2018-08-23T02:47:32.047Z,21.70
2018-08-23T02:50:00.658Z,21.40
2018-08-23T02:52:35.431Z,21.27
2018-08-23T02:55:05.150Z,20.47
2018-08-23T02:57:33.924Z,19.47
2018-08-23T03:00:06.814Z,20.40
2018-08-23T03:02:49.285Z,19.70
2018-08-23T03:05:22.616Z,19.43
2018-08-23T03:07:51.281Z,19.60
2018-08-23T03:10:25.486Z,19.23
2018-08-23T03:13:04.333Z,19.37
2018-08-23T03:15:43.807Z,19.47
2018-08-23T03:18:36.087Z,18.50
2018-08-23T03:21:07.744Z,19.77
2018-08-23T03:23:45.335Z,19.73
2018-08-23T03:26:21.211Z,21.10
2018-08-23T03:28:54.494Z,19.50
2018-08-23T03:31:23.249Z,18.80
2018-08-23T03:33:53.790Z,20.70
2018-08-23T03:36:23.391Z,20.27
2018-08-23T03:38:51.991Z,19.93
2018-08-23T03:41:30.202Z,20.03
2018-08-23T03:43:59.838Z,20.13
2018-08-23T03:46:47.180Z,21.00
2018-08-23T03:49:36.242Z,19.33
2018-08-23T03:52:05.029Z,21.03
2018-08-23T03:54:49.689Z,20.43
2018-08-23T03:57:19.469Z,21.43
2018-08-23T03:59:53.757Z,21.30
2018-08-23T04:02:36.197Z,21.73
2018-08-23T04:05:14.562Z,22.07
2018-08-23T04:07:49.004Z,22.20
2018-08-23T04:10:29.280Z,21.67
2018-08-23T04:12:59.892Z,20.77
2018-08-23T04:15:31.508Z,20.77
2018-08-23T04:18:14.150Z,21.03
2018-08-23T04:20:55.070Z,20.80
2018-08-23T04:23:23.622Z,20.17
2018-08-23T04:25:52.274Z,20.73
2018-08-23T04:28:26.752Z,20.83
2018-08-23T04:30:59.680Z,20.57
2018-08-23T04:33:30.222Z,20.93
2018-08-23T04:36:21.490Z,21.60
2018-08-23T04:39:01.782Z,21.77
2018-08-23T04:41:32.599Z,20.97
2018-08-23T04:44:10.114Z,20.53
2018-08-23T04:46:42.447Z,20.20
2018-08-23T04:49:14.197Z,21.57
2018-08-23T04:51:44.825Z,21.70
2018-08-23T04:54:18.346Z,21.43
2018-08-23T04:56:50.215Z,21.63
2018-08-23T04:59:18.831Z,21.17
2018-08-23T05:01:49.339Z,22.07
2018-08-23T05:04:21.730Z,24.80
2018-08-23T05:06:50.487Z,24.63
2018-08-23T05:09:19.998Z,24.53
2018-08-23T05:11:48.394Z,22.93
2018-08-23T05:14:17.347Z,23.83
2018-08-23T05:16:52.585Z,24.40
2018-08-23T05:19:27.361Z,23.70
2018-08-23T05:21:56.954Z,24.73
2018-08-23T05:24:25.375Z,24.87
2018-08-23T05:26:54.062Z,24.90
2018-08-23T05:29:22.674Z,23.80
2018-08-23T05:31:51.128Z,24.27
2018-08-23T05:34:25.028Z,23.40
2018-08-23T05:36:54.266Z,24.43
2018-08-23T05:40:00.212Z,24.00
2018-08-23T05:42:48.745Z,23.37
2018-08-23T05:45:18.154Z,24.83
2018-08-23T05:47:48.750Z,25.17
2018-08-23T05:50:23.427Z,24.93
2018-08-23T05:52:51.899Z,25.20
2018-08-23T05:55:20.650Z,27.77
2018-08-23T05:57:50.258Z,26.40
2018-08-23T06:00:23.508Z,26.17
2018-08-23T06:02:56.517Z,26.80
2018-08-23T06:05:25.169Z,26.37
2018-08-23T06:07:53.859Z,26.43
2018-08-23T06:10:28.130Z,26.50
2018-08-23T06:13:04.139Z,26.50
2018-08-23T06:15:46.110Z,26.40
2018-08-23T06:18:17.404Z,27.53
2018-08-23T06:20:48.010Z,26.83
2018-08-23T06:23:21.243Z,27.70
2018-08-23T06:25:50.954Z,27.47
2018-08-23T06:28:26.406Z,27.93
2018-08-23T06:30:55.808Z,26.77
2018-08-23T06:33:37.732Z,27.70
2018-08-23T06:36:13.903Z,29.07
2018-08-23T06:38:47.045Z,28.30
2018-08-23T06:41:15.698Z,27.33
2018-08-23T06:43:44.320Z,26.73
2018-08-23T06:46:13.613Z,28.20
2018-08-23T06:48:46.642Z,29.70
2018-08-23T06:51:18.768Z,27.83
2018-08-23T06:53:52.600Z,28.37
2018-08-23T06:56:35.362Z,26.67
2018-08-23T06:59:09.489Z,28.43
2018-08-23T07:01:47.596Z,27.60
2018-08-23T07:04:17.162Z,26.00
2018-08-23T07:06:58.038Z,25.80
2018-08-23T07:09:27.789Z,25.87
2018-08-23T07:12:14.620Z,25.57
2018-08-23T07:14:56.652Z,24.70
2018-08-23T07:17:36.252Z,25.40
2018-08-23T07:20:14.210Z,23.73
2018-08-23T07:22:47.994Z,24.60
2018-08-23T07:25:18.831Z,25.83
2018-08-23T07:27:49.420Z,25.00
2018-08-23T07:30:19.380Z,25.47
2018-08-23T07:32:50.182Z,26.17
2018-08-23T07:35:19.945Z,25.93
2018-08-23T07:37:51.498Z,24.83
2018-08-23T07:40:23.402Z,24.50
2018-08-23T07:43:10.368Z,24.50
2018-08-23T07:45:38.752Z,23.97
2018-08-23T07:48:07.478Z,23.60
2018-08-23T07:50:36.157Z,23.53
2018-08-23T07:53:05.037Z,22.80
2018-08-23T07:55:34.759Z,20.23
2018-08-23T07:58:03.846Z,19.47
2018-08-23T08:00:41.283Z,21.07
2018-08-23T08:03:10.980Z,19.97
2018-08-23T08:05:45.556Z,19.93
2018-08-23T08:08:18.048Z,19.87
2018-08-23T08:10:47.684Z,20.40
2018-08-23T08:13:34.750Z,19.50
2018-08-23T08:16:14.406Z,19.90
2018-08-23T08:18:42.942Z,19.23
2018-08-23T08:21:18.174Z,20.57
2018-08-23T08:23:56.558Z,20.33
2018-08-23T08:26:26.584Z,19.90
2018-08-23T08:28:55.298Z,20.00
2018-08-23T08:31:25.757Z,19.80
2018-08-23T08:33:57.372Z,20.60
2018-08-23T08:36:29.676Z,20.73
2018-08-23T08:39:00.008Z,20.93
2018-08-23T08:41:33.316Z,21.77
2018-08-23T08:44:04.106Z,21.47
2018-08-23T08:46:32.665Z,22.67
2018-08-23T08:49:02.343Z,22.90
2018-08-23T08:51:32.021Z,21.77
2018-08-23T08:54:04.638Z,23.50
2018-08-23T08:56:40.941Z,22.10
2018-08-23T08:59:10.470Z,20.80
2018-08-23T09:01:45.509Z,21.00
2018-08-23T09:04:37.011Z,21.10
2018-08-23T09:07:18.002Z,21.70
2018-08-23T09:09:58.421Z,23.67
2018-08-23T09:12:33.039Z,23.20
2018-08-23T09:15:03.782Z,23.37
2018-08-23T09:17:45.105Z,23.87
2018-08-23T09:20:27.209Z,22.20
2018-08-23T09:22:59.252Z,24.27
2018-08-23T09:25:34.098Z,24.80
2018-08-23T09:28:07.653Z,23.70
2018-08-23T09:30:37.311Z,23.67
2018-08-23T09:33:14.259Z,23.27
2018-08-23T09:35:42.695Z,22.90
2018-08-23T09:38:18.481Z,20.67
2018-08-23T09:40:47.175Z,20.07
2018-08-23T09:43:16.772Z,18.80
2018-08-23T09:45:55.550Z,17.33
2018-08-23T09:48:26.151Z,16.00
2018-08-23T09:50:55.845Z,15.07
2018-08-23T09:53:26.284Z,15.20
2018-08-23T09:55:56.126Z,13.80
2018-08-23T09:58:31.182Z,13.50
2018-08-23T10:01:07.127Z,14.03
2018-08-23T10:03:40.864Z,14.33
2018-08-23T10:06:22.906Z,13.27
2018-08-23T10:09:08.380Z,13.53
2018-08-23T10:11:53.652Z,13.63
2018-08-23T10:14:32.837Z,12.97
2018-08-23T10:17:11.512Z,14.37
2018-08-23T10:19:45.138Z,15.63
2018-08-23T10:22:29.300Z,14.77
2018-08-23T10:25:07.786Z,14.77
2018-08-23T10:27:39.864Z,14.50
2018-08-23T10:30:11.692Z,16.93
2018-08-23T10:32:40.387Z,16.67
2018-08-23T10:35:09.981Z,16.53
2018-08-23T10:37:39.607Z,17.13
2018-08-23T10:40:08.806Z,16.70
2018-08-23T10:42:38.568Z,16.93
2018-08-23T10:45:11.096Z,18.17
2018-08-23T10:47:51.368Z,16.17
2018-08-23T10:50:37.997Z,16.87
2018-08-23T10:53:16.188Z,17.40
2018-08-23T10:55:50.596Z,17.53
2018-08-23T10:58:19.107Z,18.13
2018-08-23T11:00:48.763Z,18.30
2018-08-23T11:03:18.354Z,17.33
2018-08-23T11:05:47.042Z,17.43
2018-08-23T11:08:23.618Z,17.63
2018-08-23T11:11:03.295Z,17.13
2018-08-23T11:13:47.676Z,17.63
2018-08-23T11:16:23.719Z,17.87
2018-08-23T11:18:57.518Z,17.60
2018-08-23T11:21:26.174Z,17.33
2018-08-23T11:23:54.968Z,17.03
2018-08-23T11:26:30.360Z,17.60
2018-08-23T11:28:59.089Z,17.13
2018-08-23T11:31:32.634Z,17.77
2018-08-23T11:34:07.776Z,17.43
2018-08-23T11:36:42.520Z,17.30
2018-08-23T11:39:12.172Z,17.53
2018-08-23T11:41:46.021Z,17.40
2018-08-23T11:44:18.234Z,17.03
2018-08-23T11:46:49.914Z,16.23
2018-08-23T11:52:11.248Z,16.60
2018-08-23T11:54:40.870Z,16.17
2018-08-23T11:57:10.500Z,15.20
2018-08-23T11:59:40.097Z,16.17
2018-08-23T12:02:26.234Z,15.37
2018-08-23T12:04:55.946Z,14.43
2018-08-23T12:07:24.594Z,13.60
2018-08-23T12:09:53.253Z,13.87
2018-08-23T12:12:22.594Z,13.13
2018-08-23T12:14:55.377Z,13.30
2018-08-23T12:17:44.194Z,13.87
2018-08-23T12:20:24.255Z,12.57
2018-08-23T12:23:10.426Z,12.70
2018-08-23T12:25:40.964Z,12.70
2018-08-23T12:28:16.894Z,12.53
2018-08-23T12:30:46.336Z,12.90
2018-08-23T12:33:15.055Z,12.27
2018-08-23T12:35:56.968Z,11.50
2018-08-23T12:38:30.886Z,11.80
2018-08-23T12:41:06.856Z,13.17
2018-08-23T12:43:48.535Z,11.80
2018-08-23T12:46:17.764Z,12.27
2018-08-23T12:48:48.510Z,11.20
2018-08-23T12:51:30.488Z,10.53
2018-08-23T12:54:05.021Z,11.53
2018-08-23T12:56:41.704Z,10.47
2018-08-23T12:59:14.186Z,9.67
2018-08-23T13:01:43.822Z,9.23
2018-08-23T13:04:24.248Z,8.87
2018-08-23T13:06:53.778Z,8.17
2018-08-23T13:09:22.549Z,8.70
2018-08-23T13:11:52.104Z,9.27
2018-08-23T13:14:20.720Z,8.70
2018-08-23T13:16:50.314Z,8.70
2018-08-23T13:19:19.970Z,7.70
2018-08-23T13:21:57.695Z,8.00
2018-08-23T13:24:26.280Z,7.70
2018-08-23T13:26:54.956Z,7.53
2018-08-23T13:29:23.830Z,7.23
2018-08-23T13:31:53.494Z,7.47
2018-08-23T13:34:22.218Z,8.17
2018-08-23T13:36:56.794Z,7.60
2018-08-23T13:39:25.542Z,8.50
2018-08-23T13:41:54.180Z,6.93
2018-08-23T13:44:22.776Z,6.90
2018-08-23T13:46:56.644Z,7.37
2018-08-23T13:49:25.388Z,6.93
2018-08-23T13:51:54.178Z,6.50
2018-08-23T13:54:24.984Z,7.07
2018-08-23T13:56:53.712Z,6.50
2018-08-23T13:59:22.293Z,6.23
2018-08-23T14:01:51.043Z,6.20
2018-08-23T14:04:19.766Z,5.87
2018-08-23T14:06:48.403Z,6.63
2018-08-23T14:09:17.160Z,6.37
2018-08-23T14:11:45.698Z,6.30
2018-08-23T14:14:14.473Z,6.20
2018-08-23T14:16:43.003Z,6.23
2018-08-23T14:19:11.739Z,6.07
2018-08-23T14:22:00.380Z,6.20
2018-08-23T14:24:45.938Z,7.00
2018-08-23T14:27:19.617Z,6.90
2018-08-23T14:29:49.205Z,7.13
2018-08-23T14:32:19.749Z,7.13
2018-08-23T14:34:48.458Z,6.40
2018-08-23T14:37:17.170Z,6.60
2018-08-23T14:39:49.580Z,5.70
2018-08-23T14:42:28.550Z,5.37
2018-08-23T14:44:59.171Z,5.13
2018-08-23T14:47:34.054Z,5.20
2018-08-23T14:53:00.814Z,5.30
2018-08-23T14:55:36.762Z,5.00
2018-08-23T14:58:05.503Z,5.30
2018-08-23T15:00:35.365Z,5.20
2018-08-23T15:03:04.886Z,4.93
2018-08-23T15:05:34.551Z,4.37
2018-08-23T15:08:06.214Z,7.60
2018-08-23T15:10:34.908Z,3.77
2018-08-23T15:13:15.192Z,4.20
2018-08-23T15:15:48.869Z,3.93
2018-08-23T15:18:19.113Z,3.60
2018-08-23T15:20:52.110Z,3.77
2018-08-23T15:23:23.602Z,3.60
2018-08-23T15:25:52.229Z,3.60
2018-08-23T15:28:21.896Z,3.60
2018-08-23T15:30:53.555Z,3.70
2018-08-23T15:33:22.791Z,3.33
2018-08-23T15:35:51.271Z,3.20
2018-08-23T15:38:25.651Z,3.30
2018-08-23T15:40:56.478Z,3.40
2018-08-23T15:43:25.074Z,3.80
2018-08-23T15:46:08.116Z,3.70
2018-08-23T15:48:38.033Z,3.30
2018-08-23T15:51:08.644Z,3.57
2018-08-23T15:53:37.260Z,3.90
2018-08-23T15:56:07.874Z,3.20
2018-08-23T15:58:36.535Z,3.53
2018-08-23T16:01:05.413Z,3.40
2018-08-23T16:03:38.576Z,3.63
2018-08-23T16:06:10.324Z,3.47
2018-08-23T16:08:44.091Z,3.67
2018-08-23T16:11:13.807Z,3.40
2018-08-23T16:13:42.958Z,3.50
2018-08-23T16:16:18.414Z,3.60
2018-08-23T16:18:53.364Z,3.73
2018-08-23T16:21:29.082Z,3.73
2018-08-23T16:24:01.621Z,4.30
2018-08-23T16:26:37.325Z,4.40
2018-08-23T16:29:09.021Z,4.23
2018-08-23T16:31:43.542Z,3.70
2018-08-23T16:34:12.156Z,3.10
2018-08-23T16:36:46.676Z,3.47
2018-08-23T16:39:15.361Z,3.77
2018-08-23T16:41:49.941Z,3.30
2018-08-23T16:44:18.847Z,3.60
2018-08-23T16:46:47.557Z,3.80
2018-08-23T16:49:16.181Z,3.97
2018-08-23T16:51:45.802Z,3.60
2018-08-23T16:54:14.494Z,3.60
2018-08-23T16:56:43.290Z,3.40
2018-08-23T16:59:16.217Z,3.63
2018-08-23T17:01:45.823Z,3.50
2018-08-23T17:04:35.658Z,3.40
2018-08-23T17:07:04.342Z,3.23
2018-08-23T17:09:42.185Z,3.10
2018-08-23T17:12:10.741Z,3.27
2018-08-23T17:14:49.710Z,3.60
2018-08-23T17:17:27.591Z,3.33
2018-08-23T17:19:59.376Z,3.30
2018-08-23T17:25:33.352Z,2.80
2018-08-23T17:28:13.725Z,2.90
2018-08-23T17:31:03.000Z,2.70
2018-08-23T17:36:38.695Z,2.90
2018-08-23T17:39:25.268Z,2.53
2018-08-23T17:41:53.767Z,2.60
2018-08-23T17:44:34.726Z,2.70
2018-08-23T17:47:05.213Z,2.70
2018-08-23T17:49:34.568Z,2.37
2018-08-23T17:52:05.161Z,2.80
2018-08-23T17:54:33.734Z,2.50
2018-08-23T17:57:02.323Z,2.60
2018-08-23T17:59:30.703Z,2.30
2018-08-23T18:02:02.484Z,2.40
2018-08-23T18:04:38.896Z,2.97
2018-08-23T18:07:11.312Z,2.63
2018-08-23T18:09:40.071Z,2.50
2018-08-23T18:12:08.853Z,2.60
2018-08-23T18:14:37.453Z,2.30
2018-08-23T18:17:07.465Z,2.80
2018-08-23T18:19:37.563Z,2.33
2018-08-23T18:22:06.419Z,2.57
2018-08-23T18:24:35.033Z,2.43
2018-08-23T18:27:03.727Z,2.60
2018-08-23T18:29:32.425Z,2.30
2018-08-23T18:32:03.537Z,2.50
2018-08-23T18:34:32.128Z,2.60
2018-08-23T18:37:01.702Z,2.50
2018-08-23T18:39:45.041Z,2.77
2018-08-23T18:42:14.866Z,2.90
2018-08-23T18:44:44.467Z,2.70
2018-08-23T18:47:16.152Z,2.77
2018-08-23T18:49:50.633Z,2.67
2018-08-23T18:55:14.349Z,2.67
2018-08-23T18:57:43.722Z,2.90
2018-08-23T19:00:13.626Z,3.00
2018-08-23T19:02:48.865Z,3.10
2018-08-23T19:05:18.264Z,3.20
2018-08-23T19:07:49.121Z,3.20
2018-08-23T19:10:19.005Z,3.80
2018-08-23T19:12:47.610Z,3.37
2018-08-23T19:15:20.477Z,3.40
2018-08-23T19:17:49.239Z,3.30
2018-08-23T19:20:18.767Z,3.60
2018-08-23T19:22:47.822Z,3.63
2018-08-23T19:25:16.663Z,3.40
2018-08-23T19:27:45.191Z,2.90
2018-08-23T19:30:14.876Z,3.10
2018-08-23T19:32:44.179Z,2.80
2018-08-23T19:35:14.909Z,2.87
2018-08-23T19:37:44.672Z,2.60
2018-08-23T19:40:15.355Z,2.53
2018-08-23T19:42:44.359Z,2.90
2018-08-23T19:45:17.862Z,2.53
2018-08-23T19:47:54.843Z,2.77
2018-08-23T19:50:25.512Z,2.67
2018-08-23T19:52:54.223Z,2.60
2018-08-23T19:55:23.621Z,2.40
2018-08-23T19:57:55.894Z,2.40
2018-08-23T20:00:24.826Z,2.20
2018-08-23T20:02:55.167Z,2.40
2018-08-23T20:05:23.761Z,2.40
2018-08-23T20:07:55.895Z,2.80
2018-08-23T20:10:25.911Z,2.90
2018-08-23T20:12:54.392Z,5.47
2018-08-23T20:15:40.891Z,6.23
2018-08-23T20:18:12.571Z,6.20
2018-08-23T20:20:44.030Z,6.33
2018-08-23T20:23:13.749Z,6.60
2018-08-23T20:25:44.323Z,7.03
2018-08-23T20:28:12.975Z,7.00
2018-08-23T20:30:43.527Z,6.63
2018-08-23T20:33:13.228Z,7.00
2018-08-23T20:35:44.413Z,7.30
2018-08-23T20:38:17.589Z,7.80
2018-08-23T20:40:49.765Z,7.13
2018-08-23T20:43:18.339Z,8.37
2018-08-23T20:45:48.601Z,7.53
2018-08-23T20:48:20.185Z,7.57
2018-08-23T20:53:47.759Z,7.83
2018-08-23T20:56:21.432Z,7.50
2018-08-23T20:58:50.418Z,6.87
2018-08-23T21:01:19.144Z,6.73
2018-08-23T21:03:53.670Z,7.13
2018-08-23T21:06:32.108Z,6.17
2018-08-23T21:09:03.212Z,5.60
2018-08-23T21:11:42.723Z,5.57
2018-08-23T21:14:15.631Z,5.87
2018-08-23T21:17:08.252Z,5.43
2018-08-23T21:19:36.911Z,5.13
2018-08-23T21:22:07.458Z,5.73
2018-08-23T21:24:38.157Z,6.20
2018-08-23T21:27:08.852Z,6.63
2018-08-23T21:29:37.597Z,7.40
2018-08-23T21:32:09.548Z,7.83
2018-08-23T21:34:48.698Z,8.07
2018-08-23T21:37:19.237Z,8.07
2018-08-23T21:39:52.564Z,8.17
2018-08-23T21:42:24.385Z,8.80
2018-08-23T21:44:53.082Z,8.40
2018-08-23T21:47:22.625Z,8.80
2018-08-23T21:49:54.417Z,9.13
2018-08-23T21:52:23.212Z,9.23
2018-08-23T21:54:52.726Z,9.57
2018-08-23T21:57:21.384Z,9.20
2018-08-23T21:59:51.552Z,9.97
2018-08-23T22:02:21.333Z,8.80
2018-08-23T22:04:52.511Z,9.17
2018-08-23T22:07:22.253Z,9.87
2018-08-23T22:09:56.806Z,10.30
2018-08-23T22:12:26.241Z,9.83
2018-08-23T22:14:58.737Z,10.17
2018-08-23T22:17:27.239Z,9.87
2018-08-23T22:20:02.161Z,11.30
2018-08-23T22:22:42.319Z,10.27
2018-08-23T22:25:13.157Z,11.17
2018-08-23T22:27:55.916Z,10.97
2018-08-23T22:30:24.417Z,10.93
2018-08-23T22:32:58.746Z,11.53
2018-08-23T22:35:38.908Z,10.17
2018-08-23T22:38:18.350Z,11.07
2018-08-23T22:40:48.937Z,11.33
2018-08-23T22:43:23.118Z,11.83
2018-08-23T22:45:53.768Z,11.77
2018-08-23T22:48:29.561Z,11.13
2018-08-23T22:50:58.070Z,11.10
2018-08-23T22:53:27.693Z,11.47
2018-08-23T22:55:56.119Z,12.13
2018-08-23T22:58:25.641Z,12.57
2018-08-23T23:00:54.064Z,12.37
2018-08-23T23:03:31.850Z,12.50
2018-08-23T23:06:01.333Z,11.80
2018-08-23T23:08:37.614Z,12.30
2018-08-23T23:11:12.473Z,12.37
2018-08-23T23:13:42.038Z,12.10
2018-08-23T23:16:10.618Z,12.73
2018-08-23T23:18:39.137Z,12.53
2018-08-23T23:21:16.276Z,12.57
2018-08-23T23:23:46.794Z,12.33
2018-08-23T23:26:37.841Z,13.13
2018-08-23T23:29:19.458Z,12.60
2018-08-23T23:31:48.149Z,13.37
2018-08-23T23:34:16.874Z,13.20
2018-08-23T23:36:48.643Z,13.90
2018-08-23T23:39:17.242Z,13.40
2018-08-23T23:41:45.902Z,14.20
2018-08-23T23:44:14.554Z,14.17
2018-08-23T23:46:42.884Z,14.03
2018-08-23T23:49:12.594Z,14.10
2018-08-23T23:51:41.598Z,13.87
2018-08-23T23:54:11.150Z,13.93
2018-08-23T23:56:57.669Z,14.10
2018-08-23T23:59:34.622Z,13.87
